sensor_id;sensor_type;location;lat;lon;timestamp;P1;durP1;ratioP1;P2;durP2;ratioP2
53666;SDS011;39568;51.026;5.468;2022-11-15T00:01:52;22.13;;;11.55;;
53666;SDS011;39568;51.026;5.468;2022-11-15T00:04:19;16.42;;;10.70;;
53666;SDS011;39568;51.026;5.468;2022-11-15T00:06:46;18.65;;;9.10;;
53666;SDS011;39568;51.026;5.468;2022-11-15T00:09:14;19.63;;;11.73;;
53666;SDS011;39568;51.026;5.468;2022-11-15T00:11:40;22.20;;;11.57;;
53666;SDS011;39568;51.026;5.468;2022-11-15T00:14:07;22.33;;;10.57;;
53666;SDS011;39568;51.026;5.468;2022-11-15T00:16:33;26.35;;;11.10;;
53666;SDS011;39568;51.026;5.468;2022-11-15T00:19:00;17.42;;;10.93;;
53666;SDS011;39568;51.026;5.468;2022-11-15T00:21:27;19.60;;;10.52;;
53666;SDS011;39568;51.026;5.468;2022-11-15T00:23:53;19.77;;;11.10;;
53666;SDS011;39568;51.026;5.468;2022-11-15T00:26:21;25.23;;;9.10;;
53666;SDS011;39568;51.026;5.468;2022-11-15T00:28:48;14.05;;;8.95;;
53666;SDS011;39568;51.026;5.468;2022-11-15T00:31:17;21.45;;;11.02;;
53666;SDS011;39568;51.026;5.468;2022-11-15T00:33:44;16.98;;;9.82;;
53666;SDS011;39568;51.026;5.468;2022-11-15T00:36:11;19.60;;;12.18;;
53666;SDS011;39568;51.026;5.468;2022-11-15T00:38:39;15.45;;;10.50;;
53666;SDS011;39568;51.026;5.468;2022-11-15T00:41:06;17.55;;;11.68;;
53666;SDS011;39568;51.026;5.468;2022-11-15T00:43:35;15.07;;;10.05;;
53666;SDS011;39568;51.026;5.468;2022-11-15T00:46:02;19.88;;;11.73;;
53666;SDS011;39568;51.026;5.468;2022-11-15T00:48:29;21.75;;;13.48;;
53666;SDS011;39568;51.026;5.468;2022-11-15T00:50:56;21.65;;;13.05;;
53666;SDS011;39568;51.026;5.468;2022-11-15T00:53:23;16.73;;;10.65;;
53666;SDS011;39568;51.026;5.468;2022-11-15T00:55:50;16.55;;;10.90;;
53666;SDS011;39568;51.026;5.468;2022-11-15T00:58:17;21.88;;;12.35;;
53666;SDS011;39568;51.026;5.468;2022-11-15T01:00:45;18.40;;;10.30;;
53666;SDS011;39568;51.026;5.468;2022-11-15T01:03:12;29.10;;;12.13;;
53666;SDS011;39568;51.026;5.468;2022-11-15T01:05:38;23.13;;;11.75;;
53666;SDS011;39568;51.026;5.468;2022-11-15T01:08:05;26.38;;;11.60;;
53666;SDS011;39568;51.026;5.468;2022-11-15T01:10:32;20.20;;;12.63;;
53666;SDS011;39568;51.026;5.468;2022-11-15T01:12:58;15.18;;;10.73;;
53666;SDS011;39568;51.026;5.468;2022-11-15T01:15:25;20.17;;;11.00;;
53666;SDS011;39568;51.026;5.468;2022-11-15T01:17:53;17.75;;;10.63;;
53666;SDS011;39568;51.026;5.468;2022-11-15T01:20:19;19.60;;;10.38;;
53666;SDS011;39568;51.026;5.468;2022-11-15T01:22:46;17.63;;;11.43;;
53666;SDS011;39568;51.026;5.468;2022-11-15T01:25:13;19.15;;;10.77;;
53666;SDS011;39568;51.026;5.468;2022-11-15T01:27:39;24.13;;;12.32;;
53666;SDS011;39568;51.026;5.468;2022-11-15T01:30:07;24.00;;;12.25;;
53666;SDS011;39568;51.026;5.468;2022-11-15T01:32:34;21.10;;;11.73;;
53666;SDS011;39568;51.026;5.468;2022-11-15T01:35:02;16.02;;;10.90;;
53666;SDS011;39568;51.026;5.468;2022-11-15T01:37:29;18.98;;;11.80;;
53666;SDS011;39568;51.026;5.468;2022-11-15T01:39:56;17.85;;;10.65;;
53666;SDS011;39568;51.026;5.468;2022-11-15T01:42:22;16.77;;;11.90;;
53666;SDS011;39568;51.026;5.468;2022-11-15T01:44:49;18.15;;;11.05;;
53666;SDS011;39568;51.026;5.468;2022-11-15T01:47:17;11.40;;;9.40;;
53666;SDS011;39568;51.026;5.468;2022-11-15T01:49:49;15.98;;;10.80;;
53666;SDS011;39568;51.026;5.468;2022-11-15T01:52:23;17.20;;;11.18;;
53666;SDS011;39568;51.026;5.468;2022-11-15T01:54:55;15.63;;;10.27;;
53666;SDS011;39568;51.026;5.468;2022-11-15T01:57:25;21.33;;;9.73;;
53666;SDS011;39568;51.026;5.468;2022-11-15T01:59:51;27.20;;;11.23;;
53666;SDS011;39568;51.026;5.468;2022-11-15T02:02:18;17.80;;;10.40;;
53666;SDS011;39568;51.026;5.468;2022-11-15T02:04:46;23.08;;;11.25;;
53666;SDS011;39568;51.026;5.468;2022-11-15T02:07:13;18.02;;;10.63;;
53666;SDS011;39568;51.026;5.468;2022-11-15T02:09:43;11.88;;;10.55;;
53666;SDS011;39568;51.026;5.468;2022-11-15T02:12:12;17.50;;;11.40;;
53666;SDS011;39568;51.026;5.468;2022-11-15T02:14:40;13.20;;;11.20;;
53666;SDS011;39568;51.026;5.468;2022-11-15T02:17:15;18.88;;;9.98;;
53666;SDS011;39568;51.026;5.468;2022-11-15T02:23:00;20.15;;;11.85;;
53666;SDS011;39568;51.026;5.468;2022-11-15T02:25:44;18.40;;;10.65;;
53666;SDS011;39568;51.026;5.468;2022-11-15T02:28:29;14.23;;;10.48;;
53666;SDS011;39568;51.026;5.468;2022-11-15T02:31:08;20.33;;;11.25;;
53666;SDS011;39568;51.026;5.468;2022-11-15T02:33:39;21.27;;;10.95;;
53666;SDS011;39568;51.026;5.468;2022-11-15T02:36:11;16.15;;;10.40;;
53666;SDS011;39568;51.026;5.468;2022-11-15T02:38:43;12.77;;;9.88;;
53666;SDS011;39568;51.026;5.468;2022-11-15T02:41:22;22.25;;;9.48;;
53666;SDS011;39568;51.026;5.468;2022-11-15T02:43:57;25.98;;;11.55;;
53666;SDS011;39568;51.026;5.468;2022-11-15T02:46:30;18.42;;;10.07;;
53666;SDS011;39568;51.026;5.468;2022-11-15T02:49:18;15.05;;;10.18;;
53666;SDS011;39568;51.026;5.468;2022-11-15T02:51:46;16.67;;;9.35;;
53666;SDS011;39568;51.026;5.468;2022-11-15T02:54:15;21.08;;;9.93;;
53666;SDS011;39568;51.026;5.468;2022-11-15T02:56:46;17.48;;;9.63;;
53666;SDS011;39568;51.026;5.468;2022-11-15T02:59:16;15.82;;;10.23;;
53666;SDS011;39568;51.026;5.468;2022-11-15T03:01:59;14.95;;;10.98;;
53666;SDS011;39568;51.026;5.468;2022-11-15T03:04:41;9.50;;;7.93;;
53666;SDS011;39568;51.026;5.468;2022-11-15T03:07:11;11.95;;;9.48;;
53666;SDS011;39568;51.026;5.468;2022-11-15T03:09:46;19.67;;;10.93;;
53666;SDS011;39568;51.026;5.468;2022-11-15T03:12:22;13.68;;;9.75;;
53666;SDS011;39568;51.026;5.468;2022-11-15T03:14:54;15.38;;;10.13;;
53666;SDS011;39568;51.026;5.468;2022-11-15T03:17:28;24.30;;;10.43;;
53666;SDS011;39568;51.026;5.468;2022-11-15T03:20:00;15.80;;;9.88;;
53666;SDS011;39568;51.026;5.468;2022-11-15T03:22:29;13.60;;;9.60;;
53666;SDS011;39568;51.026;5.468;2022-11-15T03:25:00;17.20;;;10.77;;
53666;SDS011;39568;51.026;5.468;2022-11-15T03:27:32;15.23;;;9.50;;
53666;SDS011;39568;51.026;5.468;2022-11-15T03:30:04;17.45;;;9.98;;
53666;SDS011;39568;51.026;5.468;2022-11-15T03:32:35;17.75;;;11.23;;
53666;SDS011;39568;51.026;5.468;2022-11-15T03:37:34;15.43;;;10.25;;
53666;SDS011;39568;51.026;5.468;2022-11-15T03:40:07;12.40;;;7.82;;
53666;SDS011;39568;51.026;5.468;2022-11-15T03:42:37;18.45;;;9.80;;
53666;SDS011;39568;51.026;5.468;2022-11-15T03:45:11;16.50;;;10.48;;
53666;SDS011;39568;51.026;5.468;2022-11-15T03:47:43;19.63;;;11.27;;
53666;SDS011;39568;51.026;5.468;2022-11-15T03:50:15;15.65;;;10.27;;
53666;SDS011;39568;51.026;5.468;2022-11-15T03:52:45;17.77;;;11.48;;
53666;SDS011;39568;51.026;5.468;2022-11-15T03:55:13;22.73;;;11.98;;
53666;SDS011;39568;51.026;5.468;2022-11-15T03:57:43;18.50;;;10.95;;
53666;SDS011;39568;51.026;5.468;2022-11-15T04:00:10;19.15;;;10.68;;
53666;SDS011;39568;51.026;5.468;2022-11-15T04:02:37;12.57;;;9.88;;
53666;SDS011;39568;51.026;5.468;2022-11-15T04:05:05;12.43;;;9.93;;
53666;SDS011;39568;51.026;5.468;2022-11-15T04:07:32;22.00;;;11.30;;
53666;SDS011;39568;51.026;5.468;2022-11-15T04:09:59;10.48;;;9.38;;
53666;SDS011;39568;51.026;5.468;2022-11-15T04:12:28;15.60;;;10.38;;
53666;SDS011;39568;51.026;5.468;2022-11-15T04:14:58;15.15;;;10.52;;
53666;SDS011;39568;51.026;5.468;2022-11-15T04:17:35;16.95;;;10.20;;
53666;SDS011;39568;51.026;5.468;2022-11-15T04:20:06;21.33;;;9.80;;
53666;SDS011;39568;51.026;5.468;2022-11-15T04:22:53;13.93;;;10.70;;
53666;SDS011;39568;51.026;5.468;2022-11-15T04:25:37;20.23;;;10.88;;
53666;SDS011;39568;51.026;5.468;2022-11-15T04:28:04;20.15;;;11.30;;
53666;SDS011;39568;51.026;5.468;2022-11-15T04:30:31;19.02;;;10.13;;
53666;SDS011;39568;51.026;5.468;2022-11-15T04:32:58;20.88;;;10.93;;
53666;SDS011;39568;51.026;5.468;2022-11-15T04:35:26;13.52;;;9.20;;
53666;SDS011;39568;51.026;5.468;2022-11-15T04:37:52;15.88;;;10.77;;
53666;SDS011;39568;51.026;5.468;2022-11-15T04:40:18;20.20;;;10.18;;
53666;SDS011;39568;51.026;5.468;2022-11-15T04:42:45;13.55;;;11.07;;
53666;SDS011;39568;51.026;5.468;2022-11-15T04:45:11;18.02;;;10.60;;
53666;SDS011;39568;51.026;5.468;2022-11-15T04:47:38;13.07;;;9.68;;
53666;SDS011;39568;51.026;5.468;2022-11-15T04:50:05;12.23;;;8.38;;
53666;SDS011;39568;51.026;5.468;2022-11-15T04:52:34;18.45;;;10.63;;
53666;SDS011;39568;51.026;5.468;2022-11-15T04:55:00;13.15;;;9.88;;
53666;SDS011;39568;51.026;5.468;2022-11-15T04:57:27;19.67;;;10.30;;
53666;SDS011;39568;51.026;5.468;2022-11-15T04:59:53;16.13;;;8.95;;
53666;SDS011;39568;51.026;5.468;2022-11-15T05:02:20;15.25;;;10.25;;
53666;SDS011;39568;51.026;5.468;2022-11-15T05:04:47;16.30;;;10.50;;
53666;SDS011;39568;51.026;5.468;2022-11-15T05:07:12;14.13;;;9.85;;
53666;SDS011;39568;51.026;5.468;2022-11-15T05:09:40;11.50;;;8.82;;
53666;SDS011;39568;51.026;5.468;2022-11-15T05:12:07;12.00;;;10.27;;
53666;SDS011;39568;51.026;5.468;2022-11-15T05:14:34;20.65;;;11.43;;
53666;SDS011;39568;51.026;5.468;2022-11-15T05:17:00;9.13;;;5.57;;
53666;SDS011;39568;51.026;5.468;2022-11-15T05:19:27;11.60;;;4.32;;
53666;SDS011;39568;51.026;5.468;2022-11-15T05:21:53;3.40;;;3.10;;
53666;SDS011;39568;51.026;5.468;2022-11-15T05:24:20;5.47;;;3.58;;
53666;SDS011;39568;51.026;5.468;2022-11-15T05:26:48;2.35;;;2.15;;
53666;SDS011;39568;51.026;5.468;2022-11-15T05:29:15;9.63;;;3.90;;
53666;SDS011;39568;51.026;5.468;2022-11-15T05:31:41;4.85;;;4.05;;
53666;SDS011;39568;51.026;5.468;2022-11-15T05:34:08;3.85;;;3.60;;
53666;SDS011;39568;51.026;5.468;2022-11-15T05:36:36;6.15;;;3.80;;
53666;SDS011;39568;51.026;5.468;2022-11-15T05:39:05;5.30;;;2.72;;
53666;SDS011;39568;51.026;5.468;2022-11-15T05:41:33;3.97;;;2.97;;
53666;SDS011;39568;51.026;5.468;2022-11-15T05:44:05;4.20;;;2.72;;
53666;SDS011;39568;51.026;5.468;2022-11-15T05:46:34;2.30;;;2.10;;
53666;SDS011;39568;51.026;5.468;2022-11-15T05:49:03;6.50;;;2.90;;
53666;SDS011;39568;51.026;5.468;2022-11-15T05:51:32;7.28;;;2.05;;
53666;SDS011;39568;51.026;5.468;2022-11-15T05:53:59;11.07;;;2.58;;
53666;SDS011;39568;51.026;5.468;2022-11-15T05:56:28;8.68;;;2.70;;
53666;SDS011;39568;51.026;5.468;2022-11-15T05:58:55;2.35;;;2.10;;
53666;SDS011;39568;51.026;5.468;2022-11-15T06:01:24;8.90;;;3.17;;
53666;SDS011;39568;51.026;5.468;2022-11-15T06:03:52;11.65;;;2.58;;
53666;SDS011;39568;51.026;5.468;2022-11-15T06:06:18;5.95;;;2.67;;
53666;SDS011;39568;51.026;5.468;2022-11-15T06:08:45;3.20;;;2.13;;
53666;SDS011;39568;51.026;5.468;2022-11-15T06:11:12;2.95;;;2.67;;
53666;SDS011;39568;51.026;5.468;2022-11-15T06:13:39;6.75;;;2.85;;
53666;SDS011;39568;51.026;5.468;2022-11-15T06:16:06;18.30;;;12.00;;
53666;SDS011;39568;51.026;5.468;2022-11-15T06:18:35;27.40;;;21.67;;
53666;SDS011;39568;51.026;5.468;2022-11-15T06:21:02;11.93;;;5.53;;
53666;SDS011;39568;51.026;5.468;2022-11-15T06:23:31;14.38;;;11.50;;
53666;SDS011;39568;51.026;5.468;2022-11-15T06:25:59;53.60;;;47.78;;
53666;SDS011;39568;51.026;5.468;2022-11-15T06:28:27;8.18;;;7.25;;
53666;SDS011;39568;51.026;5.468;2022-11-15T06:30:54;13.23;;;7.82;;
53666;SDS011;39568;51.026;5.468;2022-11-15T06:33:21;19.63;;;7.68;;
53666;SDS011;39568;51.026;5.468;2022-11-15T06:35:49;7.32;;;6.30;;
53666;SDS011;39568;51.026;5.468;2022-11-15T06:38:15;10.70;;;6.10;;
53666;SDS011;39568;51.026;5.468;2022-11-15T06:40:42;6.57;;;5.93;;
53666;SDS011;39568;51.026;5.468;2022-11-15T06:43:09;12.90;;;7.00;;
53666;SDS011;39568;51.026;5.468;2022-11-15T06:45:35;13.35;;;7.70;;
53666;SDS011;39568;51.026;5.468;2022-11-15T06:48:02;13.93;;;7.20;;
53666;SDS011;39568;51.026;5.468;2022-11-15T06:50:29;11.73;;;7.30;;
53666;SDS011;39568;51.026;5.468;2022-11-15T06:53:01;11.02;;;5.60;;
53666;SDS011;39568;51.026;5.468;2022-11-15T06:55:29;7.70;;;5.70;;
53666;SDS011;39568;51.026;5.468;2022-11-15T06:57:56;12.70;;;6.80;;
53666;SDS011;39568;51.026;5.468;2022-11-15T07:00:22;12.38;;;5.60;;
53666;SDS011;39568;51.026;5.468;2022-11-15T07:02:49;12.55;;;6.70;;
53666;SDS011;39568;51.026;5.468;2022-11-15T07:05:16;7.63;;;6.57;;
53666;SDS011;39568;51.026;5.468;2022-11-15T07:07:42;5.20;;;4.70;;
53666;SDS011;39568;51.026;5.468;2022-11-15T07:10:10;8.10;;;6.30;;
53666;SDS011;39568;51.026;5.468;2022-11-15T07:12:37;8.02;;;5.70;;
53666;SDS011;39568;51.026;5.468;2022-11-15T07:15:04;9.40;;;6.40;;
53666;SDS011;39568;51.026;5.468;2022-11-15T07:17:31;7.45;;;6.28;;
53666;SDS011;39568;51.026;5.468;2022-11-15T07:19:58;8.38;;;5.47;;
53666;SDS011;39568;51.026;5.468;2022-11-15T07:22:25;4.88;;;4.07;;
53666;SDS011;39568;51.026;5.468;2022-11-15T07:24:51;19.83;;;6.03;;
53666;SDS011;39568;51.026;5.468;2022-11-15T07:27:20;9.68;;;5.50;;
53666;SDS011;39568;51.026;5.468;2022-11-15T07:29:46;13.32;;;5.57;;
53666;SDS011;39568;51.026;5.468;2022-11-15T07:32:13;7.15;;;4.97;;
53666;SDS011;39568;51.026;5.468;2022-11-15T07:34:40;5.72;;;4.65;;
53666;SDS011;39568;51.026;5.468;2022-11-15T07:37:06;12.77;;;4.70;;
53666;SDS011;39568;51.026;5.468;2022-11-15T07:39:33;11.63;;;6.43;;
53666;SDS011;39568;51.026;5.468;2022-11-15T07:42:00;11.63;;;6.85;;
53666;SDS011;39568;51.026;5.468;2022-11-15T07:44:45;11.68;;;8.85;;
53666;SDS011;39568;51.026;5.468;2022-11-15T07:47:12;10.15;;;8.93;;
53666;SDS011;39568;51.026;5.468;2022-11-15T07:49:44;10.65;;;8.60;;
53666;SDS011;39568;51.026;5.468;2022-11-15T07:52:12;16.17;;;8.02;;
53666;SDS011;39568;51.026;5.468;2022-11-15T07:54:38;9.18;;;7.85;;
53666;SDS011;39568;51.026;5.468;2022-11-15T07:57:05;14.07;;;7.60;;
53666;SDS011;39568;51.026;5.468;2022-11-15T07:59:34;8.10;;;5.63;;
53666;SDS011;39568;51.026;5.468;2022-11-15T08:02:02;19.20;;;7.15;;
53666;SDS011;39568;51.026;5.468;2022-11-15T08:04:28;12.73;;;6.38;;
53666;SDS011;39568;51.026;5.468;2022-11-15T08:06:55;10.32;;;5.68;;
53666;SDS011;39568;51.026;5.468;2022-11-15T08:09:22;10.65;;;4.50;;
53666;SDS011;39568;51.026;5.468;2022-11-15T08:11:48;4.35;;;2.72;;
53666;SDS011;39568;51.026;5.468;2022-11-15T08:14:15;6.75;;;3.10;;
53666;SDS011;39568;51.026;5.468;2022-11-15T08:16:42;7.05;;;2.88;;
53666;SDS011;39568;51.026;5.468;2022-11-15T08:19:10;5.60;;;3.28;;
53666;SDS011;39568;51.026;5.468;2022-11-15T08:21:36;3.45;;;3.15;;
53666;SDS011;39568;51.026;5.468;2022-11-15T08:24:03;8.45;;;3.92;;
53666;SDS011;39568;51.026;5.468;2022-11-15T08:26:30;6.32;;;3.08;;
53666;SDS011;39568;51.026;5.468;2022-11-15T08:28:57;3.33;;;2.70;;
53666;SDS011;39568;51.026;5.468;2022-11-15T08:31:24;10.05;;;4.03;;
53666;SDS011;39568;51.026;5.468;2022-11-15T08:33:50;8.05;;;3.13;;
53666;SDS011;39568;51.026;5.468;2022-11-15T08:36:18;2.40;;;2.28;;
53666;SDS011;39568;51.026;5.468;2022-11-15T08:38:45;3.45;;;3.15;;
53666;SDS011;39568;51.026;5.468;2022-11-15T08:41:12;1.67;;;1.55;;
53666;SDS011;39568;51.026;5.468;2022-11-15T08:43:43;5.25;;;2.22;;
53666;SDS011;39568;51.026;5.468;2022-11-15T08:46:10;1.60;;;1.50;;
53666;SDS011;39568;51.026;5.468;2022-11-15T08:48:38;2.45;;;2.33;;
53666;SDS011;39568;51.026;5.468;2022-11-15T08:51:05;4.60;;;3.53;;
53666;SDS011;39568;51.026;5.468;2022-11-15T08:53:33;3.38;;;1.88;;
53666;SDS011;39568;51.026;5.468;2022-11-15T08:56:00;2.58;;;1.40;;
53666;SDS011;39568;51.026;5.468;2022-11-15T08:58:27;5.88;;;2.03;;
53666;SDS011;39568;51.026;5.468;2022-11-15T09:00:54;1.48;;;1.23;;
53666;SDS011;39568;51.026;5.468;2022-11-15T09:03:21;6.60;;;1.40;;
53666;SDS011;39568;51.026;5.468;2022-11-15T09:05:48;1.42;;;1.25;;
53666;SDS011;39568;51.026;5.468;2022-11-15T09:08:14;3.63;;;2.35;;
53666;SDS011;39568;51.026;5.468;2022-11-15T09:10:42;7.10;;;3.03;;
53666;SDS011;39568;51.026;5.468;2022-11-15T09:13:09;3.80;;;1.60;;
53666;SDS011;39568;51.026;5.468;2022-11-15T09:15:36;1.90;;;1.02;;
53666;SDS011;39568;51.026;5.468;2022-11-15T09:18:02;5.93;;;1.73;;
53666;SDS011;39568;51.026;5.468;2022-11-15T09:20:29;2.28;;;1.95;;
53666;SDS011;39568;51.026;5.468;2022-11-15T09:22:58;3.58;;;2.28;;
53666;SDS011;39568;51.026;5.468;2022-11-15T09:25:26;1.77;;;0.90;;
53666;SDS011;39568;51.026;5.468;2022-11-15T09:27:54;5.28;;;1.20;;
53666;SDS011;39568;51.026;5.468;2022-11-15T09:30:21;4.47;;;1.50;;
53666;SDS011;39568;51.026;5.468;2022-11-15T09:32:48;5.32;;;1.63;;
53666;SDS011;39568;51.026;5.468;2022-11-15T09:35:15;4.50;;;1.40;;
53666;SDS011;39568;51.026;5.468;2022-11-15T09:37:42;2.88;;;1.30;;
53666;SDS011;39568;51.026;5.468;2022-11-15T09:40:09;2.75;;;0.82;;
53666;SDS011;39568;51.026;5.468;2022-11-15T09:42:54;4.65;;;1.02;;
53666;SDS011;39568;51.026;5.468;2022-11-15T09:45:32;2.58;;;1.23;;
53666;SDS011;39568;51.026;5.468;2022-11-15T09:48:07;4.97;;;1.60;;
53666;SDS011;39568;51.026;5.468;2022-11-15T09:50:46;17.70;;;2.20;;
53666;SDS011;39568;51.026;5.468;2022-11-15T09:53:17;3.97;;;1.00;;
53666;SDS011;39568;51.026;5.468;2022-11-15T09:55:52;1.67;;;1.17;;
53666;SDS011;39568;51.026;5.468;2022-11-15T09:58:26;2.50;;;0.93;;
53666;SDS011;39568;51.026;5.468;2022-11-15T10:00:59;1.95;;;1.42;;
53666;SDS011;39568;51.026;5.468;2022-11-15T10:03:33;11.88;;;4.43;;
53666;SDS011;39568;51.026;5.468;2022-11-15T10:06:02;3.80;;;1.00;;
53666;SDS011;39568;51.026;5.468;2022-11-15T10:08:33;3.15;;;1.02;;
53666;SDS011;39568;51.026;5.468;2022-11-15T10:11:07;6.68;;;1.00;;
53666;SDS011;39568;51.026;5.468;2022-11-15T10:13:39;6.00;;;1.90;;
53666;SDS011;39568;51.026;5.468;2022-11-15T10:16:13;5.28;;;1.10;;
53666;SDS011;39568;51.026;5.468;2022-11-15T10:18:53;6.13;;;1.88;;
53666;SDS011;39568;51.026;5.468;2022-11-15T10:21:29;7.35;;;1.38;;
53666;SDS011;39568;51.026;5.468;2022-11-15T10:24:00;2.47;;;0.95;;
53666;SDS011;39568;51.026;5.468;2022-11-15T10:26:27;2.53;;;0.77;;
53666;SDS011;39568;51.026;5.468;2022-11-15T10:28:55;10.45;;;1.60;;
53666;SDS011;39568;51.026;5.468;2022-11-15T10:31:22;3.42;;;0.80;;
53666;SDS011;39568;51.026;5.468;2022-11-15T10:33:51;6.35;;;2.00;;
53666;SDS011;39568;51.026;5.468;2022-11-15T10:36:23;5.00;;;1.33;;
53666;SDS011;39568;51.026;5.468;2022-11-15T10:38:57;7.70;;;1.58;;
53666;SDS011;39568;51.026;5.468;2022-11-15T10:41:37;5.75;;;1.80;;
53666;SDS011;39568;51.026;5.468;2022-11-15T10:44:11;4.82;;;1.45;;
53666;SDS011;39568;51.026;5.468;2022-11-15T10:46:44;9.07;;;2.42;;
53666;SDS011;39568;51.026;5.468;2022-11-15T10:49:14;4.90;;;1.15;;
53666;SDS011;39568;51.026;5.468;2022-11-15T10:51:44;2.58;;;1.02;;
53666;SDS011;39568;51.026;5.468;2022-11-15T10:54:13;9.93;;;1.00;;
53666;SDS011;39568;51.026;5.468;2022-11-15T10:56:48;4.30;;;0.95;;
53666;SDS011;39568;51.026;5.468;2022-11-15T10:59:21;1.48;;;1.15;;
53666;SDS011;39568;51.026;5.468;2022-11-15T11:01:52;5.88;;;1.02;;
53666;SDS011;39568;51.026;5.468;2022-11-15T11:04:19;6.28;;;1.52;;
53666;SDS011;39568;51.026;5.468;2022-11-15T11:06:46;4.05;;;1.20;;
53666;SDS011;39568;51.026;5.468;2022-11-15T11:09:21;4.45;;;1.10;;
53666;SDS011;39568;51.026;5.468;2022-11-15T11:11:51;9.98;;;1.00;;
53666;SDS011;39568;51.026;5.468;2022-11-15T11:14:21;4.30;;;1.45;;
53666;SDS011;39568;51.026;5.468;2022-11-15T11:16:52;1.42;;;1.17;;
53666;SDS011;39568;51.026;5.468;2022-11-15T11:19:44;3.03;;;1.20;;
53666;SDS011;39568;51.026;5.468;2022-11-15T11:22:19;6.32;;;1.48;;
53666;SDS011;39568;51.026;5.468;2022-11-15T11:24:59;1.85;;;0.70;;
53666;SDS011;39568;51.026;5.468;2022-11-15T11:27:41;3.83;;;0.70;;
53666;SDS011;39568;51.026;5.468;2022-11-15T11:30:14;3.40;;;1.55;;
53666;SDS011;39568;51.026;5.468;2022-11-15T11:32:49;2.10;;;0.85;;
53666;SDS011;39568;51.026;5.468;2022-11-15T11:35:23;4.28;;;0.90;;
53666;SDS011;39568;51.026;5.468;2022-11-15T11:37:58;7.65;;;0.70;;
53666;SDS011;39568;51.026;5.468;2022-11-15T11:40:35;3.58;;;1.10;;
53666;SDS011;39568;51.026;5.468;2022-11-15T11:43:08;3.28;;;1.63;;
53666;SDS011;39568;51.026;5.468;2022-11-15T11:45:57;3.22;;;1.08;;
53666;SDS011;39568;51.026;5.468;2022-11-15T11:48:38;5.70;;;1.33;;
53666;SDS011;39568;51.026;5.468;2022-11-15T11:51:09;7.47;;;1.10;;
53666;SDS011;39568;51.026;5.468;2022-11-15T11:53:43;14.20;;;1.85;;
53666;SDS011;39568;51.026;5.468;2022-11-15T11:56:16;5.88;;;1.40;;
53666;SDS011;39568;51.026;5.468;2022-11-15T11:58:48;5.07;;;1.05;;
53666;SDS011;39568;51.026;5.468;2022-11-15T12:01:20;8.32;;;1.20;;
53666;SDS011;39568;51.026;5.468;2022-11-15T12:03:51;1.23;;;0.75;;
53666;SDS011;39568;51.026;5.468;2022-11-15T12:06:23;5.93;;;1.88;;
53666;SDS011;39568;51.026;5.468;2022-11-15T12:08:57;3.35;;;1.88;;
53666;SDS011;39568;51.026;5.468;2022-11-15T12:11:29;4.65;;;1.17;;
53666;SDS011;39568;51.026;5.468;2022-11-15T12:14:03;2.35;;;1.00;;
53666;SDS011;39568;51.026;5.468;2022-11-15T12:16:36;3.65;;;1.40;;
53666;SDS011;39568;51.026;5.468;2022-11-15T12:19:08;5.15;;;1.45;;
53666;SDS011;39568;51.026;5.468;2022-11-15T12:21:35;6.07;;;1.23;;
53666;SDS011;39568;51.026;5.468;2022-11-15T12:24:11;2.95;;;1.45;;
53666;SDS011;39568;51.026;5.468;2022-11-15T12:26:41;4.47;;;0.82;;
53666;SDS011;39568;51.026;5.468;2022-11-15T12:29:15;4.25;;;1.85;;
53666;SDS011;39568;51.026;5.468;2022-11-15T12:34:29;1.17;;;0.65;;
53666;SDS011;39568;51.026;5.468;2022-11-15T12:37:01;5.20;;;1.42;;
53666;SDS011;39568;51.026;5.468;2022-11-15T12:40:14;8.35;;;4.45;;
53666;SDS011;39568;51.026;5.468;2022-11-15T12:42:56;3.85;;;1.00;;
53666;SDS011;39568;51.026;5.468;2022-11-15T12:45:26;7.80;;;1.40;;
53666;SDS011;39568;51.026;5.468;2022-11-15T12:47:57;6.40;;;1.40;;
53666;SDS011;39568;51.026;5.468;2022-11-15T12:50:53;4.82;;;0.98;;
53666;SDS011;39568;51.026;5.468;2022-11-15T12:53:27;2.95;;;2.58;;
53666;SDS011;39568;51.026;5.468;2022-11-15T12:56:08;6.07;;;1.38;;
53666;SDS011;39568;51.026;5.468;2022-11-15T12:58:45;5.95;;;1.75;;
53666;SDS011;39568;51.026;5.468;2022-11-15T13:04:22;2.78;;;1.42;;
53666;SDS011;39568;51.026;5.468;2022-11-15T13:06:51;5.18;;;1.10;;
53666;SDS011;39568;51.026;5.468;2022-11-15T13:18:19;12.23;;;2.55;;
53666;SDS011;39568;51.026;5.468;2022-11-15T13:20:55;7.78;;;2.47;;
53666;SDS011;39568;51.026;5.468;2022-11-15T13:23:21;2.13;;;1.00;;
53666;SDS011;39568;51.026;5.468;2022-11-15T13:28:39;5.65;;;2.85;;
53666;SDS011;39568;51.026;5.468;2022-11-15T13:31:24;5.57;;;2.40;;
53666;SDS011;39568;51.026;5.468;2022-11-15T13:33:53;2.55;;;1.90;;
53666;SDS011;39568;51.026;5.468;2022-11-15T13:36:24;5.38;;;1.80;;
53666;SDS011;39568;51.026;5.468;2022-11-15T13:38:54;2.55;;;1.88;;
53666;SDS011;39568;51.026;5.468;2022-11-15T13:41:23;3.33;;;0.88;;
53666;SDS011;39568;51.026;5.468;2022-11-15T13:43:52;3.00;;;0.90;;
53666;SDS011;39568;51.026;5.468;2022-11-15T13:46:21;3.20;;;1.33;;
53666;SDS011;39568;51.026;5.468;2022-11-15T13:48:51;8.75;;;1.65;;
53666;SDS011;39568;51.026;5.468;2022-11-15T13:51:21;6.47;;;1.05;;
53666;SDS011;39568;51.026;5.468;2022-11-15T13:53:55;2.00;;;1.38;;
53666;SDS011;39568;51.026;5.468;2022-11-15T13:56:24;2.67;;;1.38;;
53666;SDS011;39568;51.026;5.468;2022-11-15T13:58:53;2.10;;;1.25;;
53666;SDS011;39568;51.026;5.468;2022-11-15T14:01:20;12.57;;;1.90;;
53666;SDS011;39568;51.026;5.468;2022-11-15T14:03:49;2.22;;;1.55;;
53666;SDS011;39568;51.026;5.468;2022-11-15T14:09:18;4.07;;;1.40;;
53666;SDS011;39568;51.026;5.468;2022-11-15T14:11:57;4.97;;;1.13;;
53666;SDS011;39568;51.026;5.468;2022-11-15T14:14:25;0.85;;;0.77;;
53666;SDS011;39568;51.026;5.468;2022-11-15T14:16:53;3.90;;;1.10;;
53666;SDS011;39568;51.026;5.468;2022-11-15T14:19:36;13.27;;;4.97;;
53666;SDS011;39568;51.026;5.468;2022-11-15T14:22:17;4.05;;;1.55;;
53666;SDS011;39568;51.026;5.468;2022-11-15T14:25:04;3.83;;;1.60;;
53666;SDS011;39568;51.026;5.468;2022-11-15T14:27:41;1.13;;;1.02;;
53666;SDS011;39568;51.026;5.468;2022-11-15T14:30:12;2.10;;;0.93;;
53666;SDS011;39568;51.026;5.468;2022-11-15T14:32:43;8.93;;;2.13;;
53666;SDS011;39568;51.026;5.468;2022-11-15T14:35:13;3.13;;;1.73;;
53666;SDS011;39568;51.026;5.468;2022-11-15T14:37:41;12.20;;;1.60;;
53666;SDS011;39568;51.026;5.468;2022-11-15T14:40:11;8.90;;;2.20;;
53666;SDS011;39568;51.026;5.468;2022-11-15T14:42:39;5.93;;;1.73;;
53666;SDS011;39568;51.026;5.468;2022-11-15T14:45:08;14.45;;;1.80;;
53666;SDS011;39568;51.026;5.468;2022-11-15T14:47:38;5.57;;;2.47;;
53666;SDS011;39568;51.026;5.468;2022-11-15T14:50:04;4.45;;;1.08;;
53666;SDS011;39568;51.026;5.468;2022-11-15T14:52:32;2.70;;;1.70;;
53666;SDS011;39568;51.026;5.468;2022-11-15T14:55:00;5.20;;;1.85;;
53666;SDS011;39568;51.026;5.468;2022-11-15T14:57:29;3.78;;;1.58;;
53666;SDS011;39568;51.026;5.468;2022-11-15T14:59:56;2.75;;;2.00;;
53666;SDS011;39568;51.026;5.468;2022-11-15T15:02:24;10.40;;;3.15;;
53666;SDS011;39568;51.026;5.468;2022-11-15T15:04:51;9.38;;;3.40;;
53666;SDS011;39568;51.026;5.468;2022-11-15T15:07:19;6.35;;;2.65;;
53666;SDS011;39568;51.026;5.468;2022-11-15T15:09:45;2.40;;;1.45;;
53666;SDS011;39568;51.026;5.468;2022-11-15T15:12:14;4.05;;;1.23;;
53666;SDS011;39568;51.026;5.468;2022-11-15T15:14:44;2.63;;;2.07;;
53666;SDS011;39568;51.026;5.468;2022-11-15T15:17:12;1.48;;;1.27;;
53666;SDS011;39568;51.026;5.468;2022-11-15T15:19:39;8.73;;;1.30;;
53666;SDS011;39568;51.026;5.468;2022-11-15T15:22:08;3.58;;;1.45;;